Westerville, Iowa
Current Conditions -  °F | °C
As of 1:53 PM on Friday 28 Nov 2014 (Local Time) from KLWD Reporting Station
Clear Clear  
Wind Chill: 42°   Ceiling: Unl
Heat Index: 48°   Visibility: 10mi
Dew Point: 31°   Wind: 15mph
Humidity: 52%   Direction: 190°S
Pressure: 29.79"   Gusts: NA
Location:  40.8106°N, 93.9578°W
Report Text: KLWD 281953Z AUTO 19013KT 10SM CLR 09/M01 A2979 RMK AO2 SLP098 T00891006
Loading
Personal Weather Stations






























Interactive Weather Map New forecast layout! Learn more

10-Day Weather Forecast

Advertisements
Track Severe Weather on mobile